createdAt,value
2016-10-18T00:00:55.594Z,0
2016-10-18T00:02:05.609Z,0
2016-10-18T00:03:15.598Z,0
2016-10-18T00:04:25.669Z,0
2016-10-18T00:05:35.985Z,0
2016-10-18T00:06:45.978Z,0
2016-10-18T00:07:56.267Z,0
2016-10-18T00:09:06.245Z,0
2016-10-18T00:10:16.257Z,0
2016-10-18T00:11:26.559Z,0
2016-10-18T00:12:36.852Z,0
2016-10-18T00:13:47.157Z,0
2016-10-18T00:14:57.475Z,0
2016-10-18T00:16:07.456Z,0
2016-10-18T00:17:17.450Z,0
2016-10-18T00:18:27.459Z,0
2016-10-18T00:19:37.752Z,0
2016-10-18T00:20:48.043Z,0
2016-10-18T00:21:58.359Z,0
2016-10-18T00:23:08.688Z,0
2016-10-18T00:24:18.978Z,0
2016-10-18T00:25:29.287Z,0
2016-10-18T00:26:39.623Z,0
2016-10-18T00:27:49.892Z,0
2016-10-18T00:28:59.872Z,0
2016-10-18T00:30:09.537Z,0
2016-10-18T00:31:19.832Z,0
2016-10-18T00:32:29.810Z,0
2016-10-18T00:33:40.134Z,0
2016-10-18T00:34:50.116Z,0
2016-10-18T00:35:59.803Z,0
2016-10-18T00:37:09.788Z,0
2016-10-18T00:38:19.464Z,0
2016-10-18T00:39:29.752Z,0
2016-10-18T00:40:39.713Z,0
2016-10-18T00:41:49.389Z,0
2016-10-18T00:42:59.384Z,0
2016-10-18T00:44:09.362Z,0
2016-10-18T00:45:19.336Z,0
2016-10-18T00:46:29.639Z,0
2016-10-18T00:47:39.944Z,0
2016-10-18T00:48:49.609Z,0
2016-10-18T00:49:59.899Z,0
2016-10-18T00:51:10.200Z,0
2016-10-18T00:52:20.487Z,0
2016-10-18T00:53:30.780Z,0
2016-10-18T00:54:40.752Z,0
2016-10-18T00:55:50.735Z,0
2016-10-18T00:57:00.712Z,0
2016-10-18T00:58:10.996Z,0
2016-10-18T00:59:20.893Z,0
2016-10-18T01:00:30.560Z,0
2016-10-18T01:01:40.245Z,0
2016-10-18T01:02:50.540Z,0
2016-10-18T01:04:00.515Z,0
2016-10-18T01:05:10.793Z,0
2016-10-18T01:06:20.966Z,0
2016-10-18T01:07:30.951Z,0
2016-10-18T01:08:41.238Z,0
2016-10-18T01:09:51.505Z,0
2016-10-18T01:11:01.489Z,0
2016-10-18T01:12:11.778Z,0
2016-10-18T01:13:21.780Z,0
2016-10-18T01:14:32.066Z,0
2016-10-18T01:15:42.355Z,0
2016-10-18T01:16:52.700Z,0
2016-10-18T01:18:02.687Z,0
2016-10-18T01:19:12.691Z,0
2016-10-18T01:20:23.107Z,0
2016-10-18T01:21:33.118Z,0
2016-10-18T01:22:43.096Z,0
2016-10-18T01:23:53.421Z,0
2016-10-18T01:25:03.713Z,0
2016-10-18T01:26:13.999Z,0
2016-10-18T01:27:24.328Z,0
2016-10-18T01:28:34.628Z,0
2016-10-18T01:29:44.926Z,0
2016-10-18T01:30:55.200Z,0
2016-10-18T01:32:05.183Z,0
2016-10-18T01:33:15.155Z,0
2016-10-18T01:34:25.440Z,0
2016-10-18T01:35:35.428Z,0
2016-10-18T01:36:45.709Z,0
2016-10-18T01:37:55.992Z,0
2016-10-18T01:39:05.974Z,0
2016-10-18T01:40:15.646Z,0
2016-10-18T01:41:25.648Z,0
2016-10-18T01:42:35.964Z,0
2016-10-18T01:43:46.245Z,0
2016-10-18T01:44:56.211Z,0
2016-10-18T01:46:06.195Z,0
2016-10-18T01:47:16.177Z,0
2016-10-18T01:48:25.539Z,0
2016-10-18T01:49:35.514Z,0
2016-10-18T01:50:45.791Z,0
2016-10-18T01:51:56.101Z,0
2016-10-18T01:53:06.103Z,0
2016-10-18T01:54:16.092Z,0
2016-10-18T01:55:26.382Z,0
2016-10-18T01:56:36.074Z,0
2016-10-18T01:57:46.361Z,0
2016-10-18T01:58:56.029Z,0
2016-10-18T02:00:06.024Z,0
2016-10-18T02:01:16.014Z,0
2016-10-18T02:02:26.331Z,0
2016-10-18T02:03:36.630Z,0
2016-10-18T02:04:46.646Z,0
2016-10-18T02:05:56.933Z,0
2016-10-18T02:07:07.228Z,0
2016-10-18T02:08:17.206Z,0
2016-10-18T02:09:27.539Z,0
2016-10-18T02:10:37.830Z,0
2016-10-18T02:11:47.796Z,0
2016-10-18T02:12:58.073Z,0
2016-10-18T02:14:08.049Z,0
2016-10-18T02:15:18.347Z,0
2016-10-18T02:16:28.633Z,0
2016-10-18T02:17:38.675Z,0
2016-10-18T02:18:48.962Z,0
2016-10-18T02:19:59.292Z,0
2016-10-18T02:21:09.270Z,0
2016-10-18T02:22:19.593Z,0
2016-10-18T02:23:29.568Z,0
2016-10-18T02:24:39.867Z,0
2016-10-18T02:25:50.158Z,0
2016-10-18T02:27:00.443Z,0
2016-10-18T02:28:10.420Z,0
2016-10-18T02:29:19.771Z,0
2016-10-18T02:30:30.094Z,0
2016-10-18T02:31:40.404Z,0
2016-10-18T02:32:50.396Z,0
2016-10-18T02:34:00.373Z,0
2016-10-18T02:35:10.362Z,0
2016-10-18T02:36:20.343Z,0
2016-10-18T02:37:30.618Z,0
2016-10-18T02:38:40.645Z,0
2016-10-18T02:39:50.932Z,0
2016-10-18T02:41:00.843Z,0
2016-10-18T02:42:11.135Z,0
2016-10-18T02:43:21.107Z,0
2016-10-18T02:44:31.091Z,0
2016-10-18T02:45:41.064Z,0
2016-10-18T02:46:51.343Z,0
2016-10-18T02:48:01.324Z,0
2016-10-18T02:49:11.604Z,0
2016-10-18T02:50:20.962Z,0
2016-10-18T02:51:30.938Z,0
2016-10-18T02:52:40.606Z,0
2016-10-18T02:53:50.882Z,0
2016-10-18T02:55:00.863Z,0
2016-10-18T02:56:11.171Z,0
2016-10-18T02:57:21.452Z,0
2016-10-18T02:58:31.428Z,0
2016-10-18T02:59:41.451Z,0
2016-10-18T03:00:51.417Z,0
2016-10-18T03:33:14.644Z,0
2016-10-18T03:34:24.616Z,0
2016-10-18T03:35:34.882Z,0
2016-10-18T03:36:44.244Z,0
2016-10-18T03:37:54.513Z,0
2016-10-18T03:39:04.839Z,0
2016-10-18T03:40:15.134Z,0
2016-10-18T03:41:25.115Z,0
2016-10-18T03:42:35.133Z,0
2016-10-18T03:43:45.119Z,0
2016-10-18T03:44:55.110Z,0
2016-10-18T03:46:05.085Z,0
2016-10-18T03:47:15.073Z,0
2016-10-18T03:48:25.081Z,0
2016-10-18T03:49:35.108Z,0
2016-10-18T03:50:45.394Z,0
2016-10-18T03:51:55.681Z,0
2016-10-18T03:53:05.969Z,0
2016-10-18T03:54:16.298Z,0
2016-10-18T03:55:26.315Z,0
2016-10-18T03:56:36.282Z,0
2016-10-18T03:57:46.263Z,0
2016-10-18T03:58:56.550Z,0
2016-10-18T04:00:06.222Z,0
2016-10-18T04:01:16.202Z,0
2016-10-18T04:02:26.182Z,0
2016-10-18T04:03:36.480Z,0
2016-10-18T04:04:46.448Z,0
2016-10-18T04:05:56.740Z,0
2016-10-18T04:07:07.038Z,0
2016-10-18T04:08:17.369Z,0
2016-10-18T04:09:27.050Z,0
2016-10-18T04:10:36.400Z,0
2016-10-18T04:11:46.393Z,0
2016-10-18T04:12:56.051Z,0
2016-10-18T04:14:05.736Z,0
2016-10-18T04:15:16.007Z,0
2016-10-18T04:16:26.307Z,0
2016-10-18T04:17:36.591Z,0
2016-10-18T04:18:46.883Z,0
2016-10-18T04:19:56.870Z,0
2016-10-18T04:21:06.848Z,0
2016-10-18T04:22:17.157Z,0
2016-10-18T04:23:27.479Z,0
2016-10-18T04:24:37.446Z,0
2016-10-18T04:25:47.427Z,0
2016-10-18T04:26:56.791Z,0
2016-10-18T04:28:06.760Z,0
2016-10-18T04:29:17.053Z,0
2016-10-18T04:30:27.339Z,0
2016-10-18T04:31:37.331Z,0
2016-10-18T04:32:47.616Z,0
2016-10-18T04:33:57.885Z,0
2016-10-18T04:35:07.872Z,0
2016-10-18T04:36:17.547Z,0
2016-10-18T04:37:27.834Z,0
2016-10-18T04:38:37.826Z,0
2016-10-18T04:39:47.847Z,0
2016-10-18T04:40:57.821Z,0
2016-10-18T04:42:08.096Z,0
2016-10-18T04:43:18.379Z,0
2016-10-18T04:44:28.675Z,0
2016-10-18T04:45:38.941Z,0
2016-10-18T04:46:48.922Z,0
2016-10-18T04:47:58.912Z,0
2016-10-18T04:49:09.201Z,0
2016-10-18T04:50:19.193Z,0
2016-10-18T04:51:29.474Z,0
2016-10-18T04:52:39.777Z,0
2016-10-18T04:53:49.751Z,0
2016-10-18T04:54:59.755Z,0
2016-10-18T04:56:09.734Z,0
2016-10-18T04:57:19.722Z,0
2016-10-18T04:58:30.013Z,0
2016-10-18T04:59:40.310Z,4
2016-10-18T05:00:50.587Z,4
2016-10-18T05:02:00.931Z,4
2016-10-18T05:03:11.218Z,4
2016-10-18T05:04:21.546Z,0
2016-10-18T05:05:31.832Z,4
2016-10-18T05:06:42.157Z,4
2016-10-18T05:07:52.358Z,4
2016-10-18T05:09:02.667Z,8
2016-10-18T05:10:12.943Z,4
2016-10-18T05:11:23.218Z,8
2016-10-18T05:12:33.513Z,8
2016-10-18T05:13:43.502Z,8
2016-10-18T05:14:53.610Z,8
2016-10-18T05:16:03.585Z,12
2016-10-18T05:17:13.876Z,16
2016-10-18T05:18:24.181Z,16
2016-10-18T05:19:33.887Z,20
2016-10-18T05:20:44.409Z,16
2016-10-18T05:21:54.438Z,20
2016-10-18T05:23:04.721Z,24
2016-10-18T05:24:14.722Z,28
2016-10-18T05:25:25.034Z,28
2016-10-18T05:26:35.051Z,32
2016-10-18T05:27:45.032Z,32
2016-10-18T05:28:55.013Z,36
2016-10-18T05:30:05.300Z,36
2016-10-18T05:31:15.591Z,40
2016-10-18T05:32:25.878Z,44
2016-10-18T05:33:35.550Z,48
2016-10-18T05:34:45.841Z,52
2016-10-18T05:35:55.823Z,52
2016-10-18T05:37:05.515Z,56
2016-10-18T05:38:15.196Z,56
2016-10-18T05:39:24.868Z,64
2016-10-18T05:40:34.841Z,68
2016-10-18T05:41:45.140Z,68
2016-10-18T05:42:55.110Z,68
2016-10-18T05:44:05.401Z,76
2016-10-18T05:45:15.397Z,76
2016-10-18T05:46:25.694Z,80
2016-10-18T05:47:35.979Z,84
2016-10-18T05:48:46.272Z,88
2016-10-18T05:49:56.548Z,88
2016-10-18T05:51:06.529Z,96
2016-10-18T05:52:16.506Z,108
2016-10-18T05:53:26.190Z,108
2016-10-18T05:54:36.479Z,116
2016-10-18T05:55:45.837Z,132
2016-10-18T05:56:55.508Z,140
2016-10-18T05:58:05.521Z,148
2016-10-18T05:59:15.202Z,152
2016-10-18T06:00:25.192Z,160
2016-10-18T06:01:35.479Z,160
2016-10-18T06:02:45.512Z,168
2016-10-18T06:03:55.803Z,172
2016-10-18T06:05:06.091Z,176
2016-10-18T06:06:16.383Z,188
2016-10-18T06:07:26.378Z,200
2016-10-18T06:08:36.359Z,220
2016-10-18T06:09:46.356Z,232
2016-10-18T06:10:56.030Z,260
2016-10-18T06:12:06.305Z,276
2016-10-18T06:13:16.306Z,304
2016-10-18T06:14:26.288Z,336
2016-10-18T06:15:36.281Z,344
2016-10-18T06:16:46.273Z,348
2016-10-18T06:17:56.564Z,344
2016-10-18T06:19:06.841Z,344
2016-10-18T06:20:17.120Z,336
2016-10-18T06:21:27.403Z,348
2016-10-18T06:22:37.701Z,384
2016-10-18T06:23:47.987Z,376
2016-10-18T06:24:58.286Z,364
2016-10-18T06:26:07.356Z,356
2016-10-18T06:27:17.333Z,344
2016-10-18T06:28:27.310Z,340
2016-10-18T06:29:37.610Z,316
2016-10-18T06:30:47.588Z,308
2016-10-18T06:31:57.880Z,296
2016-10-18T06:33:07.858Z,296
2016-10-18T06:34:17.839Z,308
2016-10-18T06:35:28.141Z,308
2016-10-18T06:36:37.831Z,300
2016-10-18T06:37:48.123Z,304
2016-10-18T06:38:58.109Z,300
2016-10-18T06:40:08.151Z,320
2016-10-18T06:41:18.430Z,316
2016-10-18T06:42:28.409Z,316
2016-10-18T06:43:38.117Z,328
2016-10-18T06:44:47.481Z,344
2016-10-18T06:45:57.772Z,368
2016-10-18T06:47:08.077Z,364
2016-10-18T06:48:18.358Z,360
2016-10-18T06:49:28.721Z,368
2016-10-18T06:50:39.042Z,380
2016-10-18T06:51:48.724Z,372
2016-10-18T06:52:59.011Z,368
2016-10-18T06:54:09.001Z,364
2016-10-18T06:55:19.288Z,372
2016-10-18T06:56:29.620Z,380
2016-10-18T06:57:39.597Z,380
2016-10-18T06:58:49.604Z,372
2016-10-18T06:59:59.617Z,356
2016-10-18T07:01:09.296Z,348
2016-10-18T07:02:19.250Z,348
2016-10-18T07:03:29.542Z,340
2016-10-18T07:04:39.839Z,344
2016-10-18T07:05:50.135Z,324
2016-10-18T07:06:59.806Z,312
2016-10-18T07:08:09.519Z,320
2016-10-18T07:09:19.484Z,344
2016-10-18T07:10:29.162Z,352
2016-10-18T07:11:39.163Z,408
2016-10-18T07:12:49.154Z,436
2016-10-18T07:13:58.846Z,444
2016-10-18T07:15:08.812Z,496
2016-10-18T07:16:18.775Z,552
2016-10-18T07:17:28.445Z,564
2016-10-18T07:18:38.427Z,560
2016-10-18T07:19:48.103Z,568
2016-10-18T07:20:57.465Z,560
2016-10-18T07:22:07.166Z,568
2016-10-18T07:23:17.158Z,584
2016-10-18T07:24:26.864Z,616
2016-10-18T07:25:37.181Z,668
2016-10-18T07:26:47.174Z,692
2016-10-18T07:27:57.470Z,756
2016-10-18T07:29:07.452Z,908
2016-10-18T07:30:17.739Z,984
2016-10-18T07:31:28.021Z,952
2016-10-18T07:32:38.307Z,1008
2016-10-18T07:33:48.287Z,1060
2016-10-18T07:34:57.647Z,1052
2016-10-18T07:36:07.932Z,1128
2016-10-18T07:37:18.218Z,1148
2016-10-18T07:38:28.501Z,1188
2016-10-18T07:39:38.236Z,1196
2016-10-18T07:40:47.909Z,1188
2016-10-18T07:41:57.900Z,1264
2016-10-18T07:43:07.891Z,1348
2016-10-18T07:44:18.174Z,1380
2016-10-18T07:45:28.497Z,1308
2016-10-18T07:46:38.816Z,1232
2016-10-18T07:47:48.835Z,1188
2016-10-18T07:48:58.825Z,1176
2016-10-18T07:50:08.497Z,1216
2016-10-18T07:51:18.178Z,1244
2016-10-18T07:52:28.470Z,1304
2016-10-18T07:53:38.462Z,1268
2016-10-18T07:54:48.736Z,1220
2016-10-18T07:55:59.073Z,1216
2016-10-18T07:57:09.050Z,1172
2016-10-18T07:58:18.728Z,1132
2016-10-18T07:59:29.051Z,1124
2016-10-18T08:00:39.341Z,1216
2016-10-18T08:01:49.324Z,1288
2016-10-18T08:02:59.301Z,1320
2016-10-18T08:04:08.972Z,1320
2016-10-18T08:05:19.284Z,1344
2016-10-18T08:06:29.575Z,1352
2016-10-18T08:07:39.879Z,1332
2016-10-18T08:08:49.859Z,1376
2016-10-18T08:10:00.145Z,1384
2016-10-18T08:11:10.154Z,1400
2016-10-18T08:12:20.435Z,1408
2016-10-18T08:13:30.728Z,1396
2016-10-18T08:14:40.422Z,1372
2016-10-18T08:15:50.390Z,1508
2016-10-18T08:17:00.700Z,1560
2016-10-18T08:18:10.368Z,1624
2016-10-18T08:19:20.030Z,1612
2016-10-18T08:20:29.705Z,1524
2016-10-18T08:21:39.976Z,1580
2016-10-18T08:22:49.644Z,1636
2016-10-18T08:23:59.677Z,1688
2016-10-18T08:25:09.993Z,1712
2016-10-18T08:26:19.957Z,1788
2016-10-18T08:27:29.929Z,1788
2016-10-18T08:28:40.233Z,1768
2016-10-18T08:29:49.900Z,1752
2016-10-18T08:31:00.198Z,1676
2016-10-18T08:32:10.168Z,1664
2016-10-18T08:33:20.486Z,1664
2016-10-18T08:34:30.154Z,1532
2016-10-18T08:35:40.443Z,1440
2016-10-18T08:36:50.721Z,1456
2016-10-18T08:38:00.402Z,1556
2016-10-18T08:39:10.712Z,1616
2016-10-18T08:40:20.990Z,1784
2016-10-18T08:41:30.961Z,1788
2016-10-18T08:42:41.271Z,1768
2016-10-18T08:43:51.261Z,1832
2016-10-18T08:45:01.247Z,1872
2016-10-18T08:46:10.921Z,1936
2016-10-18T08:47:20.889Z,1964
2016-10-18T08:48:30.601Z,2060
2016-10-18T08:49:40.889Z,1896
2016-10-18T08:50:50.860Z,1844
2016-10-18T08:52:00.261Z,1756
2016-10-18T08:53:10.249Z,1792
2016-10-18T08:54:19.918Z,2016
2016-10-18T08:55:29.898Z,1920
2016-10-18T08:56:39.883Z,1800
2016-10-18T08:57:49.860Z,1764
2016-10-18T08:59:00.159Z,1700
2016-10-18T09:00:10.448Z,1704
2016-10-18T09:01:20.721Z,1796
2016-10-18T09:02:30.733Z,1996
2016-10-18T09:03:40.738Z,1936
2016-10-18T09:04:50.720Z,2020
2016-10-18T09:06:00.693Z,1900
2016-10-18T09:07:10.662Z,1952
2016-10-18T09:08:20.952Z,2268
2016-10-18T09:09:30.313Z,2368
2016-10-18T09:10:40.591Z,2396
2016-10-18T09:11:50.926Z,2504
2016-10-18T09:13:01.198Z,2380
2016-10-18T09:14:11.479Z,2348
2016-10-18T09:15:21.493Z,2204
2016-10-18T09:16:31.769Z,2164
2016-10-18T09:17:42.064Z,2016
2016-10-18T09:18:52.351Z,1980
2016-10-18T09:20:02.643Z,1828
2016-10-18T09:21:12.609Z,1568
2016-10-18T09:22:22.281Z,1568
2016-10-18T09:23:31.964Z,1628
2016-10-18T09:24:41.960Z,1572
2016-10-18T09:25:51.988Z,1432
2016-10-18T09:27:02.280Z,1336
2016-10-18T09:28:12.266Z,1388
2016-10-18T09:29:22.239Z,1272
2016-10-18T09:30:32.255Z,1316
2016-10-18T09:31:42.236Z,1336
2016-10-18T09:32:52.241Z,1280
2016-10-18T09:34:02.553Z,1256
2016-10-18T09:35:12.532Z,1224
2016-10-18T09:36:22.220Z,1216
2016-10-18T09:37:32.493Z,1264
2016-10-18T09:38:42.491Z,1344
2016-10-18T09:39:52.473Z,1424
2016-10-18T09:41:02.154Z,1472
2016-10-18T09:42:12.433Z,1400
2016-10-18T09:43:22.428Z,1360
2016-10-18T09:44:32.411Z,1344
2016-10-18T09:45:42.696Z,1372
2016-10-18T09:46:52.720Z,1400
2016-10-18T09:48:02.696Z,1496
2016-10-18T09:49:12.974Z,1520
2016-10-18T09:50:22.953Z,1580
2016-10-18T09:51:32.616Z,1604
2016-10-18T09:52:42.913Z,1640
2016-10-18T09:53:52.889Z,1568
2016-10-18T09:55:02.882Z,1476
2016-10-18T09:56:12.904Z,1404
2016-10-18T09:57:23.197Z,1360
2016-10-18T09:58:33.412Z,1328
2016-10-18T09:59:43.694Z,1296
2016-10-18T10:00:53.679Z,1276
2016-10-18T10:02:03.361Z,1248
2016-10-18T10:03:13.345Z,1252
2016-10-18T10:04:23.337Z,1240
2016-10-18T10:05:33.626Z,1216
2016-10-18T10:06:43.637Z,1236
2016-10-18T10:07:53.328Z,1216
2016-10-18T10:09:03.046Z,1192
2016-10-18T10:10:13.403Z,1168
2016-10-18T10:11:23.758Z,1256
2016-10-18T10:12:33.449Z,1284
2016-10-18T10:13:43.443Z,1316
2016-10-18T10:14:53.445Z,1408
2016-10-18T10:16:03.456Z,1356
2016-10-18T10:17:12.874Z,1256
2016-10-18T10:18:26.804Z,1236
2016-10-18T10:19:43.826Z,1208
2016-10-18T10:20:59.140Z,1256
2016-10-18T10:22:11.592Z,1284
2016-10-18T10:23:22.206Z,1352
2016-10-18T10:24:32.537Z,1388
2016-10-18T10:25:43.344Z,1412
2016-10-18T10:26:53.707Z,1440
2016-10-18T10:28:03.417Z,1496
2016-10-18T10:29:13.741Z,1520
2016-10-18T10:30:24.154Z,1636
2016-10-18T10:31:34.167Z,1648
2016-10-18T10:32:44.184Z,1648
2016-10-18T10:33:54.489Z,1704
2016-10-18T10:35:06.280Z,1792
2016-10-18T10:36:17.420Z,1888
2016-10-18T10:37:27.713Z,1952
2016-10-18T10:38:37.993Z,1996
2016-10-18T10:39:48.279Z,2072
2016-10-18T10:40:58.571Z,2108
2016-10-18T10:42:08.548Z,2160
2016-10-18T10:43:18.554Z,2192
2016-10-18T10:44:28.866Z,2248
2016-10-18T10:45:38.888Z,2260
2016-10-18T10:46:49.168Z,2296
2016-10-18T10:47:59.166Z,2284
2016-10-18T10:49:09.154Z,2276
2016-10-18T10:50:19.158Z,2236
2016-10-18T10:51:29.464Z,2220
2016-10-18T10:52:39.171Z,2228
2016-10-18T10:53:49.683Z,2168
2016-10-18T10:54:59.669Z,2180
2016-10-18T10:56:09.976Z,2156
2016-10-18T10:57:20.281Z,2180
2016-10-18T10:58:29.970Z,2196
2016-10-18T10:59:39.952Z,2132
2016-10-18T11:00:50.256Z,2000
2016-10-18T11:01:59.922Z,1988
2016-10-18T11:03:09.910Z,1896
2016-10-18T11:04:19.890Z,1804
2016-10-18T11:05:30.173Z,1724
2016-10-18T11:06:40.158Z,1580
2016-10-18T11:07:50.510Z,1472
2016-10-18T11:09:00.795Z,1412
2016-10-18T11:10:10.776Z,1396
2016-10-18T11:11:21.078Z,1320
2016-10-18T11:12:31.377Z,1392
2016-10-18T11:13:41.676Z,1420
2016-10-18T11:14:51.955Z,1512
2016-10-18T11:16:01.972Z,1512
2016-10-18T11:17:12.256Z,1484
2016-10-18T11:18:21.947Z,1324
2016-10-18T11:19:31.307Z,1332
2016-10-18T11:20:41.296Z,1368
2016-10-18T11:21:51.299Z,1500
2016-10-18T11:23:01.325Z,1492
2016-10-18T11:24:11.611Z,1496
2016-10-18T11:25:21.626Z,1416
2016-10-18T11:26:31.600Z,1472
2016-10-18T11:27:41.887Z,1448
2016-10-18T11:28:52.177Z,1496
2016-10-18T11:30:02.169Z,1464
2016-10-18T11:31:12.175Z,1396
2016-10-18T11:32:22.222Z,1320
2016-10-18T11:33:32.006Z,1348
2016-10-18T11:34:42.087Z,1444
2016-10-18T11:35:52.378Z,1468
2016-10-18T11:37:02.673Z,1500
2016-10-18T11:38:12.974Z,1616
2016-10-18T11:39:22.664Z,1564
2016-10-18T11:40:32.891Z,1652
2016-10-18T11:41:42.865Z,1604
2016-10-18T11:42:53.176Z,1688
2016-10-18T11:44:03.160Z,1604
2016-10-18T11:45:12.570Z,1568
2016-10-18T11:46:22.878Z,1800
2016-10-18T11:47:32.884Z,1848
2016-10-18T11:48:42.916Z,1848
2016-10-18T11:49:52.601Z,1844
2016-10-18T11:51:02.910Z,1772
2016-10-18T11:52:12.887Z,1668
2016-10-18T11:53:22.906Z,1544
2016-10-18T11:54:33.199Z,1368
2016-10-18T11:55:43.506Z,1420
2016-10-18T11:56:53.187Z,1356
2016-10-18T11:58:03.485Z,1244
2016-10-18T11:59:13.779Z,1288
2016-10-18T12:00:24.030Z,1340
2016-10-18T12:01:34.346Z,1408
2016-10-18T12:02:44.357Z,1376
2016-10-18T12:03:54.376Z,1372
2016-10-18T12:05:04.385Z,1432
2016-10-18T12:06:14.696Z,1536
2016-10-18T12:07:24.992Z,1380
2016-10-18T12:08:34.976Z,1300
2016-10-18T12:09:45.286Z,1276
2016-10-18T12:10:55.592Z,1116
2016-10-18T12:12:05.879Z,1168
2016-10-18T12:13:15.879Z,1132
2016-10-18T12:14:26.164Z,1152
2016-10-18T12:15:36.465Z,1124
2016-10-18T12:16:46.743Z,1312
2016-10-18T12:17:57.043Z,1356
2016-10-18T12:19:07.372Z,1244
2016-10-18T12:20:17.683Z,1340
2016-10-18T12:21:27.988Z,1316
2016-10-18T12:22:37.965Z,1196
2016-10-18T12:23:48.269Z,1280
2016-10-18T12:24:58.563Z,1152
2016-10-18T12:26:08.856Z,1336
2016-10-18T12:27:18.526Z,1376
2016-10-18T12:28:28.816Z,1248
2016-10-18T12:29:39.120Z,1268
2016-10-18T12:30:48.803Z,1388
2016-10-18T12:31:58.789Z,1388
2016-10-18T12:33:08.826Z,1512
2016-10-18T12:34:18.486Z,1580
2016-10-18T12:35:28.472Z,1548
2016-10-18T12:36:38.779Z,1448
2016-10-18T12:37:49.058Z,1404
2016-10-18T12:38:59.054Z,1540
2016-10-18T12:40:08.783Z,1368
2016-10-18T12:41:18.445Z,1408
2016-10-18T12:42:28.735Z,1460
2016-10-18T12:43:38.786Z,1544
2016-10-18T12:44:48.770Z,1580
2016-10-18T12:45:59.310Z,1596
2016-10-18T12:47:08.683Z,1604
2016-10-18T12:48:18.710Z,1680
2016-10-18T12:49:28.699Z,1580
2016-10-18T12:50:39.002Z,1572
2016-10-18T12:51:49.293Z,1448
2016-10-18T12:52:59.586Z,1352
2016-10-18T12:54:09.876Z,1288
2016-10-18T12:55:20.165Z,1328
2016-10-18T12:56:30.486Z,1412
2016-10-18T12:57:40.154Z,1572
2016-10-18T12:58:50.530Z,1772
2016-10-18T13:00:00.841Z,1816
2016-10-18T13:01:11.145Z,1860
2016-10-18T13:02:21.450Z,1824
2016-10-18T13:03:31.443Z,1784
2016-10-18T13:04:41.742Z,1764
2016-10-18T13:05:52.038Z,1800
2016-10-18T13:07:02.344Z,1696
2016-10-18T13:08:12.341Z,1660
2016-10-18T13:09:22.325Z,1496
2016-10-18T13:10:32.640Z,1240
2016-10-18T13:11:42.946Z,1200
2016-10-18T13:12:52.958Z,1208
2016-10-18T13:14:03.272Z,1204
2016-10-18T13:15:13.250Z,1252
2016-10-18T13:16:23.590Z,1204
2016-10-18T13:17:33.557Z,1248
2016-10-18T13:18:43.569Z,1220
2016-10-18T13:19:53.904Z,1160
2016-10-18T13:21:04.200Z,1152
2016-10-18T13:22:14.484Z,1196
2016-10-18T13:23:24.478Z,1140
2016-10-18T13:24:34.778Z,1152
2016-10-18T13:25:44.811Z,1176
2016-10-18T13:26:54.502Z,1164
2016-10-18T13:28:04.544Z,1128
2016-10-18T13:29:14.244Z,1104
2016-10-18T13:30:24.539Z,1136
2016-10-18T13:31:34.834Z,1092
2016-10-18T13:32:44.485Z,1060
2016-10-18T13:33:54.511Z,1032
2016-10-18T13:35:04.211Z,1000
2016-10-18T13:36:14.546Z,1000
2016-10-18T13:37:24.538Z,980
2016-10-18T13:38:34.534Z,920
2016-10-18T13:39:44.806Z,884
2016-10-18T13:40:54.786Z,896
2016-10-18T13:42:04.458Z,876
2016-10-18T13:43:14.143Z,840
2016-10-18T13:44:24.132Z,812
2016-10-18T13:45:33.510Z,788
2016-10-18T13:46:43.497Z,740
2016-10-18T13:47:53.797Z,708
2016-10-18T13:49:03.454Z,708
2016-10-18T13:50:12.829Z,692
2016-10-18T13:51:22.516Z,680
2016-10-18T13:52:32.816Z,688
2016-10-18T13:53:43.163Z,644
2016-10-18T13:54:53.176Z,632
2016-10-18T13:56:03.183Z,656
2016-10-18T13:57:13.498Z,668
2016-10-18T13:58:23.487Z,656
2016-10-18T13:59:33.799Z,632
2016-10-18T14:00:44.085Z,624
2016-10-18T14:01:54.086Z,636
2016-10-18T14:03:04.092Z,644
2016-10-18T14:04:14.392Z,624
2016-10-18T14:05:24.681Z,636
2016-10-18T14:06:34.973Z,640
2016-10-18T14:07:44.975Z,652
2016-10-18T14:08:55.254Z,656
2016-10-18T14:10:05.559Z,644
2016-10-18T14:11:15.855Z,636
2016-10-18T14:12:25.577Z,636
2016-10-18T14:13:35.550Z,648
2016-10-18T14:14:45.548Z,640
2016-10-18T14:15:55.217Z,616
2016-10-18T14:17:05.229Z,584
2016-10-18T14:18:15.622Z,560
2016-10-18T14:19:25.606Z,548
2016-10-18T14:20:35.636Z,560
2016-10-18T14:21:45.636Z,552
2016-10-18T14:22:55.606Z,560
2016-10-18T14:24:05.589Z,552
2016-10-18T14:25:15.906Z,552
2016-10-18T14:26:25.896Z,560
2016-10-18T14:27:36.178Z,572
2016-10-18T14:28:46.175Z,548
2016-10-18T14:29:56.167Z,508
2016-10-18T14:31:06.467Z,480
2016-10-18T14:32:16.443Z,464
2016-10-18T14:33:26.469Z,452
2016-10-18T14:34:36.752Z,444
2016-10-18T14:35:47.033Z,440
2016-10-18T14:36:57.327Z,444
2016-10-18T14:38:07.604Z,456
2016-10-18T14:39:17.946Z,456
2016-10-18T14:40:27.932Z,456
2016-10-18T14:41:37.616Z,468
2016-10-18T14:42:47.601Z,480
2016-10-18T14:43:57.909Z,484
2016-10-18T14:45:08.222Z,480
2016-10-18T14:46:18.212Z,460
2016-10-18T14:47:28.192Z,440
2016-10-18T14:48:37.558Z,428
2016-10-18T14:49:47.871Z,412
2016-10-18T14:50:58.176Z,404
2016-10-18T14:52:08.484Z,392
2016-10-18T14:53:18.810Z,380
2016-10-18T14:54:28.808Z,376
2016-10-18T14:55:38.502Z,376
2016-10-18T14:56:48.507Z,372
2016-10-18T14:57:58.816Z,372
2016-10-18T14:59:08.801Z,368
2016-10-18T15:00:18.811Z,368
2016-10-18T15:01:29.127Z,360
2016-10-18T15:02:38.818Z,340
2016-10-18T15:03:48.817Z,312
2016-10-18T15:04:58.816Z,296
2016-10-18T15:06:08.210Z,296
2016-10-18T15:07:18.512Z,288
2016-10-18T15:08:28.860Z,280
2016-10-18T15:09:39.179Z,268
2016-10-18T15:10:48.896Z,260
2016-10-18T15:11:58.281Z,252
2016-10-18T15:13:08.586Z,252
2016-10-18T15:14:18.904Z,252
2016-10-18T15:15:28.845Z,252
2016-10-18T15:16:39.160Z,248
2016-10-18T15:17:49.164Z,248
2016-10-18T15:18:59.162Z,240
2016-10-18T15:20:09.469Z,236
2016-10-18T15:21:19.787Z,228
2016-10-18T15:22:29.779Z,220
2016-10-18T15:23:39.790Z,212
2016-10-18T15:24:49.785Z,204
2016-10-18T15:25:59.775Z,196
2016-10-18T15:27:09.750Z,188
2016-10-18T15:28:19.757Z,180
2016-10-18T15:29:29.767Z,168
2016-10-18T15:30:40.090Z,160
2016-10-18T15:31:50.395Z,144
2016-10-18T15:33:00.940Z,140
2016-10-18T15:34:11.247Z,132
2016-10-18T15:35:21.554Z,120
2016-10-18T15:36:31.577Z,112
2016-10-18T15:37:41.906Z,108
2016-10-18T15:38:52.219Z,96
2016-10-18T15:40:01.943Z,88
2016-10-18T15:41:11.957Z,84
2016-10-18T15:42:22.270Z,76
2016-10-18T15:43:32.263Z,68
2016-10-18T15:44:42.590Z,64
2016-10-18T15:45:52.895Z,60
2016-10-18T15:47:03.251Z,52
2016-10-18T15:48:13.577Z,48
2016-10-18T15:49:23.885Z,44
2016-10-18T15:50:34.225Z,40
2016-10-18T15:51:44.261Z,32
2016-10-18T15:52:54.244Z,32
2016-10-18T15:54:04.571Z,28
2016-10-18T15:55:14.581Z,28
2016-10-18T15:56:24.896Z,24
2016-10-18T15:57:34.584Z,24
2016-10-18T15:58:44.887Z,20
2016-10-18T15:59:55.204Z,20
2016-10-18T16:01:05.196Z,20
2016-10-18T16:02:14.931Z,16
2016-10-18T16:03:25.238Z,16
2016-10-18T16:04:35.230Z,12
2016-10-18T16:05:45.568Z,12
2016-10-18T16:06:55.876Z,12
2016-10-18T16:08:06.199Z,8
2016-10-18T16:09:16.192Z,8
2016-10-18T16:10:26.175Z,4
2016-10-18T16:11:36.456Z,4
2016-10-18T16:12:46.453Z,4
2016-10-18T16:13:56.753Z,4
2016-10-18T16:15:06.426Z,4
2016-10-18T16:16:16.739Z,0
2016-10-18T16:17:26.718Z,4
2016-10-18T16:18:36.754Z,4
2016-10-18T16:19:47.112Z,4
2016-10-18T16:20:57.468Z,0
2016-10-18T16:22:07.778Z,0
2016-10-18T16:23:18.109Z,0
2016-10-18T16:24:28.444Z,0
2016-10-18T16:25:38.449Z,0
2016-10-18T16:26:48.777Z,0
2016-10-18T16:27:58.769Z,0
2016-10-18T16:29:09.081Z,0
2016-10-18T16:30:19.378Z,0
2016-10-18T16:31:29.744Z,0
2016-10-18T16:32:40.092Z,0
2016-10-18T16:33:50.394Z,0
2016-10-18T16:35:00.415Z,0
2016-10-18T16:36:10.940Z,0
2016-10-18T16:37:20.938Z,0
2016-10-18T16:38:31.101Z,0
2016-10-18T16:39:41.401Z,0
2016-10-18T16:40:51.404Z,0
2016-10-18T16:42:01.400Z,0
2016-10-18T16:43:11.722Z,0
2016-10-18T16:44:21.732Z,0
2016-10-18T16:45:32.025Z,0
2016-10-18T16:46:42.318Z,0
2016-10-18T16:47:52.300Z,0
2016-10-18T16:49:02.595Z,0